createdAt,value
2017-03-11T00:00:05.589Z,8.78
2017-03-11T00:00:46.264Z,8.79
2017-03-11T00:01:26.997Z,8.64
2017-03-11T00:02:07.620Z,8.64
2017-03-11T00:02:48.325Z,8.73
2017-03-11T00:03:29.052Z,8.74
2017-03-11T00:04:09.757Z,8.71
2017-03-11T00:04:50.444Z,8.64
2017-03-11T00:05:31.137Z,8.66
2017-03-11T00:06:11.733Z,8.71
2017-03-11T00:06:52.409Z,8.69
2017-03-11T00:07:33.194Z,8.66
2017-03-11T00:08:13.783Z,8.61
2017-03-11T00:08:54.512Z,8.64
2017-03-11T00:09:35.125Z,8.63
2017-03-11T00:10:15.823Z,8.73
2017-03-11T00:10:56.477Z,8.63
2017-03-11T00:11:37.057Z,8.63
2017-03-11T00:12:17.735Z,8.71
2017-03-11T00:12:58.426Z,8.73
2017-03-11T00:13:39.133Z,8.61
2017-03-11T00:14:19.733Z,8.69
2017-03-11T00:15:00.403Z,8.61
2017-03-11T00:15:41.056Z,8.67
2017-03-11T00:16:21.708Z,8.6
2017-03-11T00:17:02.393Z,8.67
2017-03-11T00:17:43.163Z,8.71
2017-03-11T00:18:23.852Z,8.64
2017-03-11T00:19:04.725Z,8.66
2017-03-11T00:19:45.431Z,8.61
2017-03-11T00:20:26.172Z,8.64
2017-03-11T00:21:06.958Z,8.61
2017-03-11T00:21:47.750Z,8.66
2017-03-11T00:22:28.478Z,8.64
2017-03-11T00:23:09.062Z,8.64
2017-03-11T00:23:49.964Z,8.63
2017-03-11T00:24:30.631Z,8.66
2017-03-11T00:25:11.370Z,8.7
2017-03-11T00:25:52.131Z,8.7
2017-03-11T00:26:32.787Z,8.64
2017-03-11T00:27:13.506Z,8.64
2017-03-11T00:27:54.332Z,8.64
2017-03-11T00:28:35.147Z,8.7
2017-03-11T00:29:15.815Z,8.6
2017-03-11T00:29:56.554Z,8.64
2017-03-11T00:30:37.211Z,8.64
2017-03-11T00:31:17.880Z,8.6
2017-03-11T00:31:58.507Z,8.64
2017-03-11T00:32:39.183Z,8.56
2017-03-11T00:33:20.021Z,8.64
2017-03-11T00:34:00.767Z,8.61
2017-03-11T00:34:41.394Z,8.61
2017-03-11T00:35:22.094Z,8.6
2017-03-11T00:36:02.719Z,8.63
2017-03-11T00:36:43.354Z,8.58
2017-03-11T00:37:24.127Z,8.52
2017-03-11T00:38:04.794Z,8.55
2017-03-11T00:38:45.500Z,8.52
2017-03-11T00:39:26.232Z,8.53
2017-03-11T00:40:06.864Z,8.49
2017-03-11T00:40:47.485Z,8.58
2017-03-11T00:41:28.145Z,8.56
2017-03-11T00:42:08.847Z,8.49
2017-03-11T00:42:49.698Z,8.48
2017-03-11T00:43:30.205Z,8.45
2017-03-11T00:44:10.840Z,8.46
2017-03-11T00:44:51.496Z,8.38
2017-03-11T00:45:32.243Z,8.46
2017-03-11T00:46:12.932Z,8.41
2017-03-11T00:46:53.648Z,8.37
2017-03-11T00:47:34.372Z,8.41
2017-03-11T00:48:15.063Z,8.31
2017-03-11T00:48:55.815Z,8.37
2017-03-11T00:49:36.471Z,8.37
2017-03-11T00:50:17.191Z,8.36
2017-03-11T00:50:57.836Z,8.41
2017-03-11T00:51:38.551Z,8.37
2017-03-11T00:52:19.239Z,8.33
2017-03-11T00:52:59.852Z,8.44
2017-03-11T00:53:40.629Z,8.36
2017-03-11T00:54:21.205Z,8.42
2017-03-11T00:55:01.922Z,8.41
2017-03-11T00:55:42.555Z,8.49
2017-03-11T00:56:23.246Z,8.44
2017-03-11T00:57:03.905Z,8.38
2017-03-11T00:57:44.583Z,8.42
2017-03-11T00:58:25.264Z,8.46
2017-03-11T00:59:05.887Z,8.45
2017-03-11T00:59:46.626Z,8.38
2017-03-11T01:00:27.322Z,8.44
2017-03-11T01:01:07.956Z,8.42
2017-03-11T01:01:48.731Z,8.42
2017-03-11T01:02:29.385Z,8.41
2017-03-11T01:03:10.067Z,8.38
2017-03-11T01:03:50.748Z,8.37
2017-03-11T01:04:31.432Z,8.33
2017-03-11T01:05:12.093Z,8.38
2017-03-11T01:05:52.780Z,8.41
2017-03-11T01:06:33.459Z,8.27
2017-03-11T01:07:14.133Z,8.37
2017-03-11T01:07:54.828Z,8.34
2017-03-11T01:08:35.492Z,8.36
2017-03-11T01:09:16.386Z,8.36
2017-03-11T01:09:57.076Z,8.38
2017-03-11T01:10:37.777Z,8.36
2017-03-11T01:11:18.459Z,8.38
2017-03-11T01:11:59.290Z,8.33
2017-03-11T01:12:40.031Z,8.31
2017-03-11T01:13:20.633Z,8.31
2017-03-11T01:14:01.357Z,8.28
2017-03-11T01:14:41.994Z,8.27
2017-03-11T01:15:22.767Z,8.34
2017-03-11T01:16:03.455Z,8.28
2017-03-11T01:16:44.131Z,8.24
2017-03-11T01:17:24.905Z,8.23
2017-03-11T01:18:05.455Z,8.18
2017-03-11T01:18:46.167Z,8.18
2017-03-11T01:19:26.937Z,8.24
2017-03-11T01:20:07.638Z,8.19
2017-03-11T01:20:48.375Z,8.13
2017-03-11T01:21:28.999Z,8.16
2017-03-11T01:22:09.555Z,8.13
2017-03-11T01:22:50.240Z,8.15
2017-03-11T01:23:30.936Z,8.12
2017-03-11T01:24:11.742Z,8.12
2017-03-11T01:24:52.404Z,8.15
2017-03-11T01:25:33.119Z,8.05
2017-03-11T01:26:13.814Z,8.05
2017-03-11T01:26:54.385Z,8.19
2017-03-11T01:27:35.181Z,8.13
2017-03-11T01:28:15.823Z,8
2017-03-11T01:28:56.540Z,8.05
2017-03-11T01:29:37.189Z,8.05
2017-03-11T01:30:18.022Z,7.98
2017-03-11T01:30:58.587Z,7.97
2017-03-11T01:31:39.258Z,8.12
2017-03-11T01:32:19.993Z,8.09
2017-03-11T01:33:00.673Z,7.95
2017-03-11T01:33:41.451Z,7.93
2017-03-11T01:34:22.114Z,8.05
2017-03-11T01:35:02.801Z,7.98
2017-03-11T01:35:43.682Z,7.93
2017-03-11T01:36:24.370Z,7.88
2017-03-11T01:37:05.033Z,7.95
2017-03-11T01:37:45.776Z,7.93
2017-03-11T01:38:26.414Z,7.94
2017-03-11T01:39:07.085Z,7.91
2017-03-11T01:39:47.800Z,7.83
2017-03-11T01:40:28.406Z,7.82
2017-03-11T01:41:09.100Z,7.9
2017-03-11T01:41:49.755Z,7.9
2017-03-11T01:42:30.470Z,7.83
2017-03-11T01:43:11.121Z,7.8
2017-03-11T01:43:51.781Z,7.87
2017-03-11T01:44:32.426Z,7.77
2017-03-11T01:45:13.065Z,7.82
2017-03-11T01:45:53.715Z,7.76
2017-03-11T01:46:34.410Z,7.76
2017-03-11T01:47:15.114Z,7.88
2017-03-11T01:47:55.820Z,7.83
2017-03-11T01:48:36.485Z,7.87
2017-03-11T01:49:17.191Z,7.82
2017-03-11T01:49:57.806Z,7.76
2017-03-11T01:50:38.488Z,7.75
2017-03-11T01:51:19.134Z,7.76
2017-03-11T01:51:59.778Z,7.7
2017-03-11T01:52:40.472Z,7.73
2017-03-11T01:53:21.135Z,7.75
2017-03-11T01:54:01.757Z,7.73
2017-03-11T01:54:42.442Z,7.75
2017-03-11T01:55:23.128Z,7.76
2017-03-11T01:56:03.841Z,7.72
2017-03-11T01:56:44.480Z,7.75
2017-03-11T01:57:25.098Z,7.8
2017-03-11T01:58:05.830Z,7.83
2017-03-11T01:58:46.509Z,7.79
2017-03-11T01:59:27.222Z,7.75
2017-03-11T02:00:07.876Z,7.79
2017-03-11T02:00:48.555Z,7.77
2017-03-11T02:01:29.246Z,7.73
2017-03-11T02:02:09.901Z,7.76
2017-03-11T02:02:50.555Z,7.73
2017-03-11T02:03:31.178Z,7.72
2017-03-11T02:04:11.857Z,7.77
2017-03-11T02:04:52.460Z,7.76
2017-03-11T02:05:33.121Z,7.67
2017-03-11T02:06:13.737Z,7.73
2017-03-11T02:06:54.389Z,7.73
2017-03-11T02:07:35.063Z,7.63
2017-03-11T02:08:15.762Z,7.69
2017-03-11T02:08:56.437Z,7.61
2017-03-11T02:09:37.101Z,7.66
2017-03-11T02:10:17.735Z,7.6
2017-03-11T02:10:58.393Z,7.67
2017-03-11T02:11:39.068Z,7.58
2017-03-11T02:12:19.826Z,7.6
2017-03-11T02:13:00.514Z,7.61
2017-03-11T02:13:41.245Z,7.63
2017-03-11T02:14:21.912Z,7.66
2017-03-11T02:15:02.554Z,7.63
2017-03-11T02:15:43.209Z,7.6
2017-03-11T02:16:23.872Z,7.61
2017-03-11T02:17:04.506Z,7.6
2017-03-11T02:17:45.109Z,7.57
2017-03-11T02:18:25.759Z,7.58
2017-03-11T02:19:06.473Z,7.58
2017-03-11T02:19:47.210Z,7.56
2017-03-11T02:20:27.881Z,7.67
2017-03-11T02:21:08.513Z,7.56
2017-03-11T02:21:49.155Z,7.58
2017-03-11T02:22:29.839Z,7.63
2017-03-11T02:23:10.499Z,7.6
2017-03-11T02:23:51.191Z,7.54
2017-03-11T02:24:31.850Z,7.5
2017-03-11T02:25:12.520Z,7.58
2017-03-11T02:25:53.240Z,7.51
2017-03-11T02:26:33.914Z,7.56
2017-03-11T02:27:14.752Z,7.53
2017-03-11T02:27:55.325Z,7.54
2017-03-11T02:28:35.983Z,7.54
2017-03-11T02:29:16.653Z,7.54
2017-03-11T02:29:57.301Z,7.51
2017-03-11T02:30:37.983Z,7.43
2017-03-11T02:31:18.617Z,7.4
2017-03-11T02:31:59.253Z,7.43
2017-03-11T02:32:39.867Z,7.42
2017-03-11T02:33:20.615Z,7.45
2017-03-11T02:34:01.274Z,7.48
2017-03-11T02:34:41.921Z,7.42
2017-03-11T02:35:22.545Z,7.48
2017-03-11T02:36:03.232Z,7.4
2017-03-11T02:36:43.856Z,7.38
2017-03-11T02:37:24.558Z,7.4
2017-03-11T02:38:05.135Z,7.42
2017-03-11T02:38:45.779Z,7.42
2017-03-11T02:39:26.473Z,7.43
2017-03-11T02:40:07.145Z,7.39
2017-03-11T02:40:47.763Z,7.4
2017-03-11T02:41:28.404Z,7.47
2017-03-11T02:42:09.053Z,7.43
2017-03-11T02:42:49.672Z,7.38
2017-03-11T02:43:30.355Z,7.39
2017-03-11T02:44:11.018Z,7.33
2017-03-11T02:44:51.669Z,7.38
2017-03-11T02:45:32.304Z,7.36
2017-03-11T02:46:12.957Z,7.43
2017-03-11T02:46:53.610Z,7.35
2017-03-11T02:47:34.285Z,7.43
2017-03-11T02:48:14.990Z,7.36
2017-03-11T02:48:55.650Z,7.42
2017-03-11T02:49:36.401Z,7.32
2017-03-11T02:50:17.041Z,7.32
2017-03-11T02:50:57.684Z,7.33
2017-03-11T02:51:38.331Z,7.36
2017-03-11T02:52:19.005Z,7.42
2017-03-11T02:52:59.729Z,7.4
2017-03-11T02:53:40.399Z,7.33
2017-03-11T02:54:21.106Z,7.42
2017-03-11T02:55:01.732Z,7.4
2017-03-11T02:55:42.482Z,7.33
2017-03-11T02:56:23.524Z,7.35
2017-03-11T02:57:04.158Z,7.36
2017-03-11T02:57:44.962Z,7.45
2017-03-11T02:58:25.508Z,7.42
2017-03-11T02:59:06.194Z,7.39
2017-03-11T02:59:46.832Z,7.39
2017-03-11T03:00:27.605Z,7.43
2017-03-11T03:01:08.278Z,7.43
2017-03-11T03:01:48.940Z,7.33
2017-03-11T03:02:29.643Z,7.36
2017-03-11T03:03:10.302Z,7.4
2017-03-11T03:03:50.985Z,7.39
2017-03-11T03:04:31.651Z,7.47
2017-03-11T03:05:12.333Z,7.33
2017-03-11T03:05:53.069Z,7.4
2017-03-11T03:06:33.853Z,7.4
2017-03-11T03:07:14.591Z,7.43
2017-03-11T03:07:55.232Z,7.33
2017-03-11T03:08:35.929Z,7.32
2017-03-11T03:09:16.594Z,7.43
2017-03-11T03:09:57.230Z,7.36
2017-03-11T03:10:37.871Z,7.33
2017-03-11T03:11:18.549Z,7.33
2017-03-11T03:11:59.208Z,7.32
2017-03-11T03:12:39.925Z,7.32
2017-03-11T03:13:20.572Z,7.33
2017-03-11T03:14:01.227Z,7.32
2017-03-11T03:14:41.870Z,7.33
2017-03-11T03:15:22.519Z,7.32
2017-03-11T03:16:03.150Z,7.28
2017-03-11T03:16:43.801Z,7.36
2017-03-11T03:17:24.443Z,7.32
2017-03-11T03:18:05.092Z,7.31
2017-03-11T03:18:45.738Z,7.28
2017-03-11T03:19:26.356Z,7.24
2017-03-11T03:20:07.021Z,7.31
2017-03-11T03:20:47.736Z,7.35
2017-03-11T03:21:28.428Z,7.29
2017-03-11T03:22:09.042Z,7.28
2017-03-11T03:22:49.736Z,7.18
2017-03-11T03:23:30.472Z,7.29
2017-03-11T03:24:11.192Z,7.35
2017-03-11T03:24:51.866Z,7.29
2017-03-11T03:25:32.533Z,7.32
2017-03-11T03:26:13.265Z,7.45
2017-03-11T03:26:53.954Z,7.31
2017-03-11T03:27:34.567Z,7.35
2017-03-11T03:28:15.222Z,7.31
2017-03-11T03:28:55.930Z,7.32
2017-03-11T03:29:36.553Z,7.33
2017-03-11T03:30:17.188Z,7.32
2017-03-11T03:30:57.843Z,7.33
2017-03-11T03:31:38.501Z,7.31
2017-03-11T03:32:19.171Z,7.31
2017-03-11T03:32:59.808Z,7.36
2017-03-11T03:33:40.465Z,7.31
2017-03-11T03:34:21.157Z,7.32
2017-03-11T03:35:01.912Z,7.31
2017-03-11T03:35:42.577Z,7.28
2017-03-11T03:36:23.203Z,7.29
2017-03-11T03:37:03.847Z,7.25
2017-03-11T03:37:44.530Z,7.21
2017-03-11T03:38:25.134Z,7.24
2017-03-11T03:39:05.834Z,7.29
2017-03-11T03:39:46.406Z,7.29
2017-03-11T03:40:27.032Z,7.31
2017-03-11T03:41:07.654Z,7.32
2017-03-11T03:41:48.344Z,7.14
2017-03-11T03:42:28.996Z,7.23
2017-03-11T03:43:09.641Z,7.2
2017-03-11T03:43:50.355Z,7.17
2017-03-11T03:44:31.019Z,7.2
2017-03-11T03:45:11.700Z,7.15
2017-03-11T03:45:52.371Z,7.21
2017-03-11T03:46:33.029Z,7.15
2017-03-11T03:47:13.710Z,7.14
2017-03-11T03:47:54.364Z,7.11
2017-03-11T03:48:35.068Z,7.06
2017-03-11T03:49:15.724Z,7.11
2017-03-11T03:49:56.361Z,7.1
2017-03-11T03:50:37.005Z,7.14
2017-03-11T03:51:17.668Z,7.03
2017-03-11T03:51:58.322Z,7.06
2017-03-11T03:52:38.989Z,7.1
2017-03-11T03:53:19.678Z,7.1
2017-03-11T03:54:00.367Z,7
2017-03-11T03:54:41.074Z,7.05
2017-03-11T03:55:21.739Z,7.07
2017-03-11T03:56:02.391Z,7.05
2017-03-11T03:56:43.012Z,6.99
2017-03-11T03:57:23.674Z,6.96
2017-03-11T03:58:04.341Z,6.95
2017-03-11T03:58:45.014Z,6.96
2017-03-11T03:59:25.634Z,6.96
2017-03-11T04:00:06.318Z,6.97
2017-03-11T04:00:46.936Z,6.96
2017-03-11T04:01:27.563Z,6.82
2017-03-11T04:02:08.263Z,6.89
2017-03-11T04:02:49.016Z,6.85
2017-03-11T04:03:29.670Z,6.88
2017-03-11T04:04:10.388Z,6.85
2017-03-11T04:04:51.043Z,6.93
2017-03-11T04:05:31.773Z,6.79
2017-03-11T04:06:12.448Z,6.87
2017-03-11T04:06:53.083Z,6.82
2017-03-11T04:07:33.762Z,6.85
2017-03-11T04:08:14.406Z,6.84
2017-03-11T04:08:55.059Z,6.85
2017-03-11T04:09:35.746Z,6.84
2017-03-11T04:10:16.408Z,6.85
2017-03-11T04:10:57.037Z,6.84
2017-03-11T04:11:37.689Z,6.82
2017-03-11T04:12:18.360Z,6.88
2017-03-11T04:12:59.019Z,6.81
2017-03-11T04:13:39.716Z,6.85
2017-03-11T04:14:20.328Z,6.84
2017-03-11T04:15:00.994Z,6.88
2017-03-11T04:15:41.651Z,6.88
2017-03-11T04:16:22.282Z,6.89
2017-03-11T04:17:02.935Z,6.88
2017-03-11T04:17:43.614Z,6.95
2017-03-11T04:18:24.248Z,6.95
2017-03-11T04:19:04.931Z,6.97
2017-03-11T04:19:45.607Z,7.03
2017-03-11T04:20:26.281Z,6.97
2017-03-11T04:21:06.951Z,6.95
2017-03-11T04:21:47.596Z,7
2017-03-11T04:22:28.348Z,7.02
2017-03-11T04:23:08.919Z,7.03
2017-03-11T04:23:49.559Z,6.97
2017-03-11T04:24:30.262Z,6.96
2017-03-11T04:25:10.884Z,6.95
2017-03-11T04:25:51.597Z,6.99
2017-03-11T04:26:32.314Z,7
2017-03-11T04:27:12.983Z,7.02
2017-03-11T04:27:53.650Z,7.06
2017-03-11T04:28:34.303Z,7
2017-03-11T04:29:14.954Z,7.03
2017-03-11T04:29:55.685Z,6.99
2017-03-11T04:30:36.322Z,6.96
2017-03-11T04:31:17.003Z,6.96
2017-03-11T04:31:57.660Z,6.96
2017-03-11T04:32:38.315Z,6.95
2017-03-11T04:33:18.971Z,6.89
2017-03-11T04:33:59.606Z,6.99
2017-03-11T04:34:40.273Z,6.99
2017-03-11T04:35:21.019Z,6.87
2017-03-11T04:36:01.744Z,6.88
2017-03-11T04:36:42.327Z,6.87
2017-03-11T04:37:23.002Z,6.87
2017-03-11T04:38:03.625Z,6.82
2017-03-11T04:38:44.255Z,6.87
2017-03-11T04:39:24.916Z,6.92
2017-03-11T04:40:05.689Z,6.85
2017-03-11T04:40:46.315Z,6.88
2017-03-11T04:41:26.966Z,6.88
2017-03-11T04:42:07.641Z,6.87
2017-03-11T04:42:48.284Z,6.85
2017-03-11T04:43:28.948Z,6.88
2017-03-11T04:44:09.624Z,6.85
2017-03-11T04:44:50.263Z,6.87
2017-03-11T04:45:30.909Z,6.88
2017-03-11T04:46:11.608Z,6.88
2017-03-11T04:46:52.216Z,6.79
2017-03-11T04:47:32.851Z,6.87
2017-03-11T04:48:13.554Z,6.87
2017-03-11T04:48:54.179Z,6.82
2017-03-11T04:49:34.881Z,6.84
2017-03-11T04:50:15.603Z,6.75
2017-03-11T04:50:56.329Z,6.81
2017-03-11T04:51:36.937Z,6.7
2017-03-11T04:52:17.589Z,6.79
2017-03-11T04:52:58.293Z,6.69
2017-03-11T04:53:38.893Z,6.74
2017-03-11T04:54:19.637Z,6.74
2017-03-11T04:55:00.355Z,6.74
2017-03-11T04:55:41.006Z,6.67
2017-03-11T04:56:21.662Z,6.81
2017-03-11T04:57:02.327Z,6.81
2017-03-11T04:57:42.963Z,6.74
2017-03-11T04:58:23.698Z,6.69
2017-03-11T04:59:04.285Z,6.75
2017-03-11T04:59:44.950Z,6.81
2017-03-11T05:00:25.635Z,6.74
2017-03-11T05:01:06.334Z,6.75
2017-03-11T05:01:46.971Z,6.79
2017-03-11T05:02:27.666Z,6.69
2017-03-11T05:03:08.313Z,6.7
2017-03-11T05:03:49.043Z,6.67
2017-03-11T05:04:29.686Z,6.77
2017-03-11T05:05:10.322Z,6.69
2017-03-11T05:05:50.974Z,6.7
2017-03-11T05:06:31.622Z,6.74
2017-03-11T05:07:12.242Z,6.7
2017-03-11T05:07:52.967Z,6.75
2017-03-11T05:08:33.618Z,6.72
2017-03-11T05:09:14.283Z,6.67
2017-03-11T05:09:55.017Z,6.7
2017-03-11T05:10:35.671Z,6.78
2017-03-11T05:11:16.340Z,6.7
2017-03-11T05:11:56.974Z,6.69
2017-03-11T05:12:37.633Z,6.66
2017-03-11T05:13:18.267Z,6.77
2017-03-11T05:13:58.977Z,6.66
2017-03-11T05:14:39.615Z,6.7
2017-03-11T05:15:20.293Z,6.69
2017-03-11T05:16:00.909Z,6.69
2017-03-11T05:16:41.557Z,6.69
2017-03-11T05:17:22.239Z,6.64
2017-03-11T05:18:02.882Z,6.64
2017-03-11T05:18:43.562Z,6.7
2017-03-11T05:19:24.275Z,6.66
2017-03-11T05:20:04.939Z,6.62
2017-03-11T05:20:45.583Z,6.6
2017-03-11T05:21:26.240Z,6.57
2017-03-11T05:22:06.868Z,6.64
2017-03-11T05:22:47.480Z,6.63
2017-03-11T05:23:28.221Z,6.56
2017-03-11T05:24:08.860Z,6.59
2017-03-11T05:24:49.464Z,6.56
2017-03-11T05:25:30.123Z,6.57
2017-03-11T05:26:10.788Z,6.59
2017-03-11T05:26:51.395Z,6.59
2017-03-11T05:27:32.076Z,6.57
2017-03-11T05:28:12.715Z,6.48
2017-03-11T05:28:53.373Z,6.52
2017-03-11T05:29:34.010Z,6.49
2017-03-11T05:30:14.634Z,6.42
2017-03-11T05:30:55.282Z,6.46
2017-03-11T05:31:35.934Z,6.38
2017-03-11T05:32:16.578Z,6.46
2017-03-11T05:32:57.213Z,6.49
2017-03-11T05:33:37.882Z,6.42
2017-03-11T05:34:18.555Z,6.49
2017-03-11T05:34:59.220Z,6.51
2017-03-11T05:35:39.862Z,6.45
2017-03-11T05:36:20.495Z,6.45
2017-03-11T05:37:01.160Z,6.48
2017-03-11T05:37:41.796Z,6.51
2017-03-11T05:38:22.440Z,6.52
2017-03-11T05:39:03.060Z,6.46
2017-03-11T05:39:43.717Z,6.52
2017-03-11T05:40:24.359Z,6.49
2017-03-11T05:41:04.996Z,6.49
2017-03-11T05:41:45.677Z,6.46
2017-03-11T05:42:26.311Z,6.6
2017-03-11T05:43:06.965Z,6.57
2017-03-11T05:43:47.635Z,6.59
2017-03-11T05:44:28.284Z,6.56
2017-03-11T05:45:08.966Z,6.6
2017-03-11T05:45:49.633Z,6.59
2017-03-11T05:46:30.257Z,6.63
2017-03-11T05:47:10.879Z,6.49
2017-03-11T05:47:51.601Z,6.6
2017-03-11T05:48:32.278Z,6.51
2017-03-11T05:49:12.907Z,6.57
2017-03-11T05:49:53.544Z,6.48
2017-03-11T05:50:34.203Z,6.52
2017-03-11T05:51:14.814Z,6.51
2017-03-11T05:51:55.459Z,6.52
2017-03-11T05:52:36.097Z,6.44
2017-03-11T05:53:16.760Z,6.46
2017-03-11T05:53:57.354Z,6.45
2017-03-11T05:54:37.972Z,6.42
2017-03-11T05:55:18.637Z,6.42
2017-03-11T05:55:59.265Z,6.49
2017-03-11T05:56:40.073Z,6.45
2017-03-11T05:57:23.495Z,6.44
2017-03-11T05:58:12.870Z,6.39
2017-03-11T05:59:02.506Z,6.33
2017-03-11T05:59:48.210Z,6.45
2017-03-11T06:00:32.023Z,6.31
2017-03-11T06:01:29.326Z,6.42
2017-03-11T06:02:24.236Z,6.3
2017-03-11T06:03:08.900Z,6.38
2017-03-11T06:03:51.800Z,6.39
2017-03-11T06:04:32.458Z,6.46
2017-03-11T06:05:13.085Z,6.42
2017-03-11T06:05:54.186Z,6.33
2017-03-11T06:06:35.119Z,6.33
2017-03-11T06:07:16.107Z,6.39
2017-03-11T06:07:56.712Z,6.45
2017-03-11T06:08:37.424Z,6.38
2017-03-11T06:09:18.337Z,6.41
2017-03-11T06:09:59.190Z,6.41
2017-03-11T06:10:39.826Z,6.31
2017-03-11T06:11:20.696Z,6.36
2017-03-11T06:12:01.444Z,6.38
2017-03-11T06:12:42.469Z,6.42
2017-03-11T06:13:23.435Z,6.39
2017-03-11T06:14:10.552Z,6.31
2017-03-11T06:15:01.628Z,6.38
2017-03-11T06:15:43.224Z,6.45
2017-03-11T06:16:24.429Z,6.39
2017-03-11T06:17:05.188Z,6.42
2017-03-11T06:17:45.914Z,6.38
2017-03-11T06:18:26.575Z,6.41
2017-03-11T06:19:07.244Z,6.42
2017-03-11T06:19:53.148Z,6.42
2017-03-11T06:20:35.836Z,6.38
2017-03-11T06:21:17.455Z,6.46
2017-03-11T06:22:05.481Z,6.45
2017-03-11T06:22:46.098Z,6.44
2017-03-11T06:23:26.917Z,6.41
2017-03-11T06:24:07.582Z,6.49
2017-03-11T06:24:48.261Z,6.48
2017-03-11T06:25:29.037Z,6.48
2017-03-11T06:26:09.681Z,6.42
2017-03-11T06:26:50.681Z,6.54
2017-03-11T06:27:31.358Z,6.54
2017-03-11T06:28:12.745Z,6.46
2017-03-11T06:28:54.273Z,6.46
2017-03-11T06:29:47.238Z,6.48
2017-03-11T06:30:37.990Z,6.45
2017-03-11T06:31:31.419Z,6.46
2017-03-11T06:32:21.854Z,6.57
2017-03-11T06:33:08.145Z,6.49
2017-03-11T06:33:51.169Z,6.51
2017-03-11T06:34:31.795Z,6.48
2017-03-11T06:35:12.423Z,6.49
2017-03-11T06:35:53.047Z,6.51
2017-03-11T06:36:33.677Z,6.6
2017-03-11T06:37:14.290Z,6.66
2017-03-11T06:37:55.747Z,6.54
2017-03-11T06:38:38.155Z,6.59
2017-03-11T06:39:20.661Z,6.62
2017-03-11T06:40:01.281Z,6.62
2017-03-11T06:40:41.937Z,6.64
2017-03-11T06:41:22.553Z,6.62
2017-03-11T06:42:03.185Z,6.64
2017-03-11T06:42:44.582Z,6.62
2017-03-11T06:43:25.184Z,6.72
2017-03-11T06:44:05.845Z,6.66
2017-03-11T06:44:46.442Z,6.67
2017-03-11T06:45:27.045Z,6.69
2017-03-11T06:46:07.661Z,6.74
2017-03-11T06:46:48.295Z,6.77
2017-03-11T06:47:28.905Z,6.7
2017-03-11T06:48:09.525Z,6.79
2017-03-11T06:48:50.215Z,6.69
2017-03-11T06:49:30.848Z,6.77
2017-03-11T06:50:11.467Z,6.75
2017-03-11T06:50:52.111Z,6.7
2017-03-11T06:51:32.706Z,6.7
2017-03-11T06:52:13.338Z,6.74
2017-03-11T06:52:54.003Z,6.69
2017-03-11T06:53:34.673Z,6.72
2017-03-11T06:54:15.356Z,6.67
2017-03-11T06:54:57.022Z,6.67
2017-03-11T06:55:37.681Z,6.75
2017-03-11T06:56:18.342Z,6.75
2017-03-11T06:56:58.946Z,6.69
2017-03-11T06:57:39.592Z,6.77
2017-03-11T06:58:20.202Z,6.69
2017-03-11T06:59:00.885Z,6.74
2017-03-11T06:59:41.513Z,6.69
2017-03-11T07:00:22.144Z,6.67
2017-03-11T07:01:02.749Z,6.74
2017-03-11T07:01:43.399Z,6.74
2017-03-11T07:02:24.107Z,6.79
2017-03-11T07:03:04.852Z,6.82
2017-03-11T07:03:45.584Z,6.74
2017-03-11T07:04:26.220Z,6.75
2017-03-11T07:05:06.893Z,6.77
2017-03-11T07:05:47.522Z,6.82
2017-03-11T07:06:28.150Z,6.81
2017-03-11T07:07:08.782Z,6.81
2017-03-11T07:07:49.377Z,6.88
2017-03-11T07:08:30.002Z,6.81
2017-03-11T07:09:10.707Z,6.89
2017-03-11T07:09:51.546Z,6.79
2017-03-11T07:10:32.292Z,6.81
2017-03-11T07:11:13.032Z,6.82
2017-03-11T07:11:54.076Z,6.81
2017-03-11T07:12:34.910Z,6.78
2017-03-11T07:13:15.627Z,6.82
2017-03-11T07:13:56.453Z,6.93
2017-03-11T07:14:37.515Z,6.79
2017-03-11T07:15:18.454Z,6.84
2017-03-11T07:15:59.427Z,6.89
2017-03-11T07:16:40.129Z,6.84
2017-03-11T07:17:20.738Z,6.87
2017-03-11T07:18:01.442Z,6.87
2017-03-11T07:18:42.093Z,6.89
2017-03-11T07:19:24.466Z,6.85
2017-03-11T07:20:06.162Z,6.93
2017-03-11T07:20:52.139Z,7.2
2017-03-11T07:21:35.827Z,7.4
2017-03-11T07:22:28.930Z,7.82
2017-03-11T07:23:13.112Z,8.06
2017-03-11T07:23:54.399Z,8.26
2017-03-11T07:24:35.692Z,8.45
2017-03-11T07:25:16.299Z,8.6
2017-03-11T07:25:56.959Z,8.73
2017-03-11T07:26:39.155Z,8.91
2017-03-11T07:27:25.378Z,9.08
2017-03-11T07:28:06.033Z,9.21
2017-03-11T07:28:46.752Z,9.28
2017-03-11T07:29:27.380Z,9.37
2017-03-11T07:30:08.015Z,9.48
2017-03-11T07:30:48.649Z,9.5
2017-03-11T07:31:29.296Z,9.31
2017-03-11T07:32:10.014Z,9.18
2017-03-11T07:32:50.695Z,9.06
2017-03-11T07:33:31.329Z,8.92
2017-03-11T07:34:12.015Z,8.91
2017-03-11T07:34:52.749Z,8.85
2017-03-11T07:35:33.378Z,8.78
2017-03-11T07:36:14.048Z,8.55
2017-03-11T07:36:54.789Z,8.55
2017-03-11T07:37:35.479Z,8.52
2017-03-11T07:38:16.076Z,8.38
2017-03-11T07:38:56.795Z,8.31
2017-03-11T07:39:37.447Z,8.3
2017-03-11T07:40:18.079Z,8.24
2017-03-11T07:40:58.800Z,8.19
2017-03-11T07:41:39.525Z,8.15
2017-03-11T07:42:20.177Z,8.09
2017-03-11T07:43:00.920Z,8.05
2017-03-11T07:43:41.574Z,8.13
2017-03-11T07:44:22.292Z,8.01
2017-03-11T07:45:02.975Z,8.03
2017-03-11T07:45:43.639Z,8.05
2017-03-11T07:46:24.317Z,7.94
2017-03-11T07:47:05.102Z,7.97
2017-03-11T07:47:45.836Z,7.98
2017-03-11T07:48:26.543Z,7.88
2017-03-11T07:49:07.180Z,7.82
2017-03-11T07:49:47.852Z,7.88
2017-03-11T07:50:28.466Z,7.9
2017-03-11T07:51:09.158Z,7.83
2017-03-11T07:51:49.902Z,7.8
2017-03-11T07:52:30.587Z,7.82
2017-03-11T07:53:11.326Z,7.83
2017-03-11T07:53:51.954Z,7.77
2017-03-11T07:54:32.616Z,7.79
2017-03-11T07:55:13.291Z,7.7
2017-03-11T07:55:54.140Z,7.73
2017-03-11T07:56:34.847Z,7.76
2017-03-11T07:57:15.498Z,7.75
2017-03-11T07:57:56.262Z,7.75
2017-03-11T07:58:36.979Z,7.76
2017-03-11T07:59:17.708Z,7.75
2017-03-11T07:59:58.346Z,7.75
2017-03-11T08:00:39.052Z,7.75
2017-03-11T08:01:19.817Z,7.75
2017-03-11T08:02:00.498Z,7.7
2017-03-11T08:02:41.244Z,7.73
2017-03-11T08:03:21.857Z,7.7
2017-03-11T08:04:02.763Z,7.8
2017-03-11T08:04:43.566Z,7.73
2017-03-11T08:05:27.456Z,7.76
2017-03-11T08:06:09.521Z,7.7
2017-03-11T08:06:50.255Z,7.76
2017-03-11T08:07:30.890Z,7.79
2017-03-11T08:08:11.745Z,7.79
2017-03-11T08:08:52.413Z,7.88
2017-03-11T08:09:33.098Z,7.9
2017-03-11T08:10:14.909Z,7.87
2017-03-11T08:10:56.868Z,7.82
2017-03-11T08:11:39.392Z,7.93
2017-03-11T08:12:20.447Z,7.93
2017-03-11T08:13:01.090Z,7.97
2017-03-11T08:13:41.708Z,7.91
2017-03-11T08:14:22.387Z,7.94
2017-03-11T08:15:03.091Z,8.08
2017-03-11T08:15:44.192Z,8.01
2017-03-11T08:16:25.885Z,8.03
2017-03-11T08:17:09.316Z,7.97
2017-03-11T08:17:49.978Z,7.98
2017-03-11T08:18:30.707Z,8.05
2017-03-11T08:19:11.378Z,8.05
2017-03-11T08:19:52.033Z,7.98
2017-03-11T08:20:32.805Z,8.05
2017-03-11T08:21:13.602Z,8.03
2017-03-11T08:21:54.291Z,8.03
2017-03-11T08:22:34.968Z,8
2017-03-11T08:23:15.640Z,8.1
2017-03-11T08:23:56.345Z,8.03
2017-03-11T08:24:37.052Z,8.06
2017-03-11T08:25:17.657Z,8.08
2017-03-11T08:25:58.243Z,8
2017-03-11T08:26:38.850Z,7.93
2017-03-11T08:27:19.457Z,7.98
2017-03-11T08:28:00.040Z,8
2017-03-11T08:28:40.655Z,7.97
2017-03-11T08:29:21.232Z,8.03
2017-03-11T08:30:01.894Z,8.05
2017-03-11T08:30:42.536Z,8.01
2017-03-11T08:31:23.124Z,8.06
2017-03-11T08:32:03.721Z,8
2017-03-11T08:32:44.435Z,8.1
2017-03-11T08:33:25.060Z,8.01
2017-03-11T08:34:05.704Z,8.08
2017-03-11T08:34:46.320Z,8.05
2017-03-11T08:35:26.912Z,7.94
2017-03-11T08:36:07.551Z,7.93
2017-03-11T08:36:48.108Z,7.9
2017-03-11T08:37:28.786Z,7.93
2017-03-11T08:38:09.420Z,8.06
2017-03-11T08:38:50.112Z,8.06
2017-03-11T08:39:30.716Z,8.06
2017-03-11T08:40:11.340Z,8.06
2017-03-11T08:40:51.973Z,8.05
2017-03-11T08:41:32.551Z,8.08
2017-03-11T08:42:13.212Z,8.09
2017-03-11T08:42:53.851Z,8.15
2017-03-11T08:43:34.439Z,8.13
2017-03-11T08:44:15.096Z,8.15
2017-03-11T08:44:55.720Z,8.24
2017-03-11T08:45:36.383Z,8.2
2017-03-11T08:46:17.000Z,8.24
2017-03-11T08:46:57.604Z,8.2
2017-03-11T08:47:38.174Z,8.24
2017-03-11T08:48:19.033Z,8.23
2017-03-11T08:48:59.637Z,8.28
2017-03-11T08:49:40.298Z,8.31
2017-03-11T08:50:20.907Z,8.27
2017-03-11T08:51:01.519Z,8.36
2017-03-11T08:51:42.308Z,8.33
2017-03-11T08:52:23.002Z,8.27
2017-03-11T08:53:03.588Z,8.37
2017-03-11T08:53:44.193Z,8.42
2017-03-11T08:54:24.778Z,8.37
2017-03-11T08:55:05.434Z,8.41
2017-03-11T08:55:46.012Z,8.33
2017-03-11T08:56:26.589Z,8.44
2017-03-11T08:57:07.179Z,8.42
2017-03-11T08:57:47.870Z,8.49
2017-03-11T08:58:28.433Z,8.38
2017-03-11T08:59:09.080Z,8.51
2017-03-11T08:59:49.645Z,8.51
2017-03-11T09:00:30.265Z,8.38
2017-03-11T09:01:10.857Z,8.41
2017-03-11T09:01:51.515Z,8.52
2017-03-11T09:02:32.122Z,8.48
2017-03-11T09:03:12.752Z,8.51
2017-03-11T09:03:53.333Z,8.55
2017-03-11T09:04:33.969Z,8.53
2017-03-11T09:05:14.517Z,8.53
2017-03-11T09:05:55.235Z,8.49
2017-03-11T09:06:35.854Z,8.49